sensor_id;sensor_type;location;lat;lon;timestamp;pressure;altitude;pressure_sealevel;temperature
13497;BMP180;6820;49.374;8.452;2023-05-20T00:00:03;100750.09;;;22.76
13497;BMP180;6820;49.374;8.452;2023-05-20T00:04:05;100762.16;;;22.79
13497;BMP180;6820;49.374;8.452;2023-05-20T00:08:07;100760.28;;;22.70
13497;BMP180;6820;49.374;8.452;2023-05-20T00:12:10;100755.09;;;22.69
13497;BMP180;6820;49.374;8.452;2023-05-20T00:16:11;100746.41;;;22.65
13497;BMP180;6820;49.374;8.452;2023-05-20T00:20:13;100748.06;;;22.61
13497;BMP180;6820;49.374;8.452;2023-05-20T00:24:15;100741.06;;;22.55
13497;BMP180;6820;49.374;8.452;2023-05-20T00:28:17;100750.44;;;22.50
13497;BMP180;6820;49.374;8.452;2023-05-20T00:32:20;100746.88;;;22.45
13497;BMP180;6820;49.374;8.452;2023-05-20T00:36:21;100750.19;;;22.38
13497;BMP180;6820;49.374;8.452;2023-05-20T00:40:23;100758.69;;;22.33
13497;BMP180;6820;49.374;8.452;2023-05-20T00:44:26;100761.09;;;22.24
13497;BMP180;6820;49.374;8.452;2023-05-20T00:48:33;100751.41;;;22.14
13497;BMP180;6820;49.374;8.452;2023-05-20T00:52:37;100751.13;;;22.02
13497;BMP180;6820;49.374;8.452;2023-05-20T00:56:39;100759.56;;;21.96
13497;BMP180;6820;49.374;8.452;2023-05-20T01:00:41;100751.59;;;21.85
13497;BMP180;6820;49.374;8.452;2023-05-20T01:04:43;100750.41;;;21.70
13497;BMP180;6820;49.374;8.452;2023-05-20T01:08:47;100755.25;;;21.57
13497;BMP180;6820;49.374;8.452;2023-05-20T01:12:53;100751.56;;;21.46
13497;BMP180;6820;49.374;8.452;2023-05-20T01:16:57;100751.38;;;21.38
13497;BMP180;6820;49.374;8.452;2023-05-20T01:21:02;100758.19;;;21.37
13497;BMP180;6820;49.374;8.452;2023-05-20T01:25:05;100749.34;;;21.27
13497;BMP180;6820;49.374;8.452;2023-05-20T01:29:07;100751.75;;;21.21
13497;BMP180;6820;49.374;8.452;2023-05-20T01:33:11;100748.88;;;21.09
13497;BMP180;6820;49.374;8.452;2023-05-20T01:37:13;100758.28;;;21.07
13497;BMP180;6820;49.374;8.452;2023-05-20T01:41:15;100761.63;;;21.04
13497;BMP180;6820;49.374;8.452;2023-05-20T01:45:18;100750.34;;;21.00
13497;BMP180;6820;49.374;8.452;2023-05-20T01:49:19;100754.56;;;20.97
13497;BMP180;6820;49.374;8.452;2023-05-20T01:53:21;100748.53;;;20.96
13497;BMP180;6820;49.374;8.452;2023-05-20T01:57:23;100743.31;;;20.93
13497;BMP180;6820;49.374;8.452;2023-05-20T02:01:25;100741.47;;;20.89
13497;BMP180;6820;49.374;8.452;2023-05-20T02:05:28;100735.44;;;20.89
13497;BMP180;6820;49.374;8.452;2023-05-20T02:09:30;100742.44;;;20.93
13497;BMP180;6820;49.374;8.452;2023-05-20T02:13:31;100740.81;;;20.96
13497;BMP180;6820;49.374;8.452;2023-05-20T02:17:33;100742.47;;;20.94
13497;BMP180;6820;49.374;8.452;2023-05-20T02:21:35;100738.88;;;20.89
13497;BMP180;6820;49.374;8.452;2023-05-20T02:25:37;100725.91;;;20.85
13497;BMP180;6820;49.374;8.452;2023-05-20T02:29:38;100725.88;;;20.83
13497;BMP180;6820;49.374;8.452;2023-05-20T02:33:40;100725.66;;;20.76
13497;BMP180;6820;49.374;8.452;2023-05-20T02:37:42;100724.69;;;20.71
13497;BMP180;6820;49.374;8.452;2023-05-20T02:41:45;100721.84;;;20.62
13497;BMP180;6820;49.374;8.452;2023-05-20T02:45:47;100715.53;;;20.51
13497;BMP180;6820;49.374;8.452;2023-05-20T02:49:48;100713.28;;;20.33
13497;BMP180;6820;49.374;8.452;2023-05-20T02:53:50;100711.88;;;20.13
13497;BMP180;6820;49.374;8.452;2023-05-20T02:57:52;100708.47;;;20.14
13497;BMP180;6820;49.374;8.452;2023-05-20T03:01:54;100716.97;;;20.12
13497;BMP180;6820;49.374;8.452;2023-05-20T03:05:56;100705.16;;;20.18
13497;BMP180;6820;49.374;8.452;2023-05-20T03:09:58;100711.25;;;20.21
13497;BMP180;6820;49.374;8.452;2023-05-20T03:13:59;100703.53;;;20.21
13497;BMP180;6820;49.374;8.452;2023-05-20T03:18:01;100703.38;;;20.15
13497;BMP180;6820;49.374;8.452;2023-05-20T03:22:03;100710.31;;;20.18
13497;BMP180;6820;49.374;8.452;2023-05-20T03:26:06;100708.53;;;20.17
13497;BMP180;6820;49.374;8.452;2023-05-20T03:30:08;100714.06;;;20.30
13497;BMP180;6820;49.374;8.452;2023-05-20T03:34:10;100712.41;;;20.32
13497;BMP180;6820;49.374;8.452;2023-05-20T03:38:12;100718.41;;;20.31
13497;BMP180;6820;49.374;8.452;2023-05-20T03:42:14;100712.56;;;20.37
13497;BMP180;6820;49.374;8.452;2023-05-20T03:46:16;100715.06;;;20.34
13497;BMP180;6820;49.374;8.452;2023-05-20T03:50:18;100720.16;;;20.32
13497;BMP180;6820;49.374;8.452;2023-05-20T03:54:20;100715.94;;;20.36
13497;BMP180;6820;49.374;8.452;2023-05-20T03:58:25;100718.56;;;20.37
13497;BMP180;6820;49.374;8.452;2023-05-20T04:02:27;100715.13;;;20.37
13497;BMP180;6820;49.374;8.452;2023-05-20T04:06:28;100716.06;;;20.40
13497;BMP180;6820;49.374;8.452;2023-05-20T04:10:32;100715.38;;;20.45
13497;BMP180;6820;49.374;8.452;2023-05-20T04:14:34;100715.38;;;20.47
13497;BMP180;6820;49.374;8.452;2023-05-20T04:18:36;100717.28;;;20.52
13497;BMP180;6820;49.374;8.452;2023-05-20T04:22:39;100720.72;;;20.53
13497;BMP180;6820;49.374;8.452;2023-05-20T04:26:41;100729.50;;;20.59
13497;BMP180;6820;49.374;8.452;2023-05-20T04:30:44;100722.91;;;20.69
13497;BMP180;6820;49.374;8.452;2023-05-20T04:34:47;100718.97;;;20.82
13497;BMP180;6820;49.374;8.452;2023-05-20T04:38:49;100712.78;;;20.76
13497;BMP180;6820;49.374;8.452;2023-05-20T04:42:50;100716.25;;;20.77
13497;BMP180;6820;49.374;8.452;2023-05-20T04:46:54;100708.53;;;20.77
13497;BMP180;6820;49.374;8.452;2023-05-20T04:50:58;100703.66;;;20.88
13497;BMP180;6820;49.374;8.452;2023-05-20T04:55:00;100708.94;;;20.93
13497;BMP180;6820;49.374;8.452;2023-05-20T04:59:02;100704.94;;;21.05
13497;BMP180;6820;49.374;8.452;2023-05-20T05:03:04;100712.06;;;21.15
13497;BMP180;6820;49.374;8.452;2023-05-20T05:07:06;100697.41;;;21.12
13497;BMP180;6820;49.374;8.452;2023-05-20T05:11:08;100707.56;;;21.07
13497;BMP180;6820;49.374;8.452;2023-05-20T05:15:10;100706.72;;;21.06
13497;BMP180;6820;49.374;8.452;2023-05-20T05:19:12;100692.91;;;21.04
13497;BMP180;6820;49.374;8.452;2023-05-20T05:23:14;100690.44;;;21.08
13497;BMP180;6820;49.374;8.452;2023-05-20T05:27:16;100691.53;;;21.18
13497;BMP180;6820;49.374;8.452;2023-05-20T05:31:18;100686.56;;;21.27
13497;BMP180;6820;49.374;8.452;2023-05-20T05:35:19;100687.56;;;21.32
13497;BMP180;6820;49.374;8.452;2023-05-20T05:39:21;100671.31;;;21.34
13497;BMP180;6820;49.374;8.452;2023-05-20T05:43:23;100669.03;;;21.46
13497;BMP180;6820;49.374;8.452;2023-05-20T05:47:25;100666.75;;;21.59
13497;BMP180;6820;49.374;8.452;2023-05-20T05:51:33;100657.59;;;21.73
13497;BMP180;6820;49.374;8.452;2023-05-20T05:55:37;100657.19;;;21.95
13497;BMP180;6820;49.374;8.452;2023-05-20T05:59:39;100660.06;;;22.09
13497;BMP180;6820;49.374;8.452;2023-05-20T06:03:41;100659.72;;;22.34
13497;BMP180;6820;49.374;8.452;2023-05-20T06:07:44;100656.50;;;22.47
13497;BMP180;6820;49.374;8.452;2023-05-20T06:11:45;100652.38;;;22.56
13497;BMP180;6820;49.374;8.452;2023-05-20T06:15:50;100665.28;;;22.58
13497;BMP180;6820;49.374;8.452;2023-05-20T06:19:53;100658.69;;;22.71
13497;BMP180;6820;49.374;8.452;2023-05-20T06:23:55;100659.75;;;22.82
13497;BMP180;6820;49.374;8.452;2023-05-20T06:27:57;100665.47;;;22.68
13497;BMP180;6820;49.374;8.452;2023-05-20T06:31:59;100666.44;;;22.71
13497;BMP180;6820;49.374;8.452;2023-05-20T06:36:01;100652.88;;;22.84
13497;BMP180;6820;49.374;8.452;2023-05-20T06:40:06;100655.69;;;22.97
13497;BMP180;6820;49.374;8.452;2023-05-20T06:44:09;100648.06;;;23.05
13497;BMP180;6820;49.374;8.452;2023-05-20T06:48:26;100645.63;;;23.14
13497;BMP180;6820;49.374;8.452;2023-05-20T06:52:28;100645.06;;;23.32
13497;BMP180;6820;49.374;8.452;2023-05-20T06:56:30;100630.59;;;23.48
13497;BMP180;6820;49.374;8.452;2023-05-20T07:00:32;100638.28;;;23.40
13497;BMP180;6820;49.374;8.452;2023-05-20T07:04:34;100639.03;;;23.33
13497;BMP180;6820;49.374;8.452;2023-05-20T07:08:36;100622.13;;;23.57
13497;BMP180;6820;49.374;8.452;2023-05-20T07:12:38;100626.75;;;23.81
13497;BMP180;6820;49.374;8.452;2023-05-20T07:16:40;100626.78;;;23.84
13497;BMP180;6820;49.374;8.452;2023-05-20T07:20:43;100614.81;;;23.93
13497;BMP180;6820;49.374;8.452;2023-05-20T07:24:55;100606.06;;;23.81
13497;BMP180;6820;49.374;8.452;2023-05-20T07:28:57;100602.41;;;23.67
13497;BMP180;6820;49.374;8.452;2023-05-20T07:32:58;100610.97;;;23.61
13497;BMP180;6820;49.374;8.452;2023-05-20T07:37:00;100614.69;;;23.83
13497;BMP180;6820;49.374;8.452;2023-05-20T07:41:02;100606.38;;;24.07
13497;BMP180;6820;49.374;8.452;2023-05-20T07:45:06;100595.16;;;24.11
13497;BMP180;6820;49.374;8.452;2023-05-20T07:49:08;100599.53;;;24.15
13497;BMP180;6820;49.374;8.452;2023-05-20T07:53:11;100593.50;;;24.16
13497;BMP180;6820;49.374;8.452;2023-05-20T07:57:13;100588.38;;;24.19
13497;BMP180;6820;49.374;8.452;2023-05-20T08:01:15;100580.59;;;24.19
13497;BMP180;6820;49.374;8.452;2023-05-20T08:05:17;100577.97;;;24.16
13497;BMP180;6820;49.374;8.452;2023-05-20T08:09:20;100569.41;;;24.21
13497;BMP180;6820;49.374;8.452;2023-05-20T08:13:27;100580.78;;;24.38
13497;BMP180;6820;49.374;8.452;2023-05-20T08:17:29;100578.28;;;24.48
13497;BMP180;6820;49.374;8.452;2023-05-20T08:21:30;100574.06;;;24.59
13497;BMP180;6820;49.374;8.452;2023-05-20T08:25:33;100577.59;;;24.67
13497;BMP180;6820;49.374;8.452;2023-05-20T08:29:35;100576.00;;;24.82
13497;BMP180;6820;49.374;8.452;2023-05-20T08:33:37;100570.06;;;24.95
13497;BMP180;6820;49.374;8.452;2023-05-20T08:37:39;100573.59;;;25.06
13497;BMP180;6820;49.374;8.452;2023-05-20T08:41:42;100563.28;;;25.18
13497;BMP180;6820;49.374;8.452;2023-05-20T08:45:45;100560.78;;;25.33
13497;BMP180;6820;49.374;8.452;2023-05-20T08:49:48;100534.88;;;25.46
13497;BMP180;6820;49.374;8.452;2023-05-20T08:53:50;100543.59;;;25.54
13497;BMP180;6820;49.374;8.452;2023-05-20T08:57:53;100533.22;;;25.64
13497;BMP180;6820;49.374;8.452;2023-05-20T09:01:55;100529.81;;;25.74
13497;BMP180;6820;49.374;8.452;2023-05-20T09:06:06;100523.78;;;25.75
13497;BMP180;6820;49.374;8.452;2023-05-20T09:10:09;100530.69;;;25.79
13497;BMP180;6820;49.374;8.452;2023-05-20T09:14:11;100528.16;;;25.97
13497;BMP180;6820;49.374;8.452;2023-05-20T09:18:12;100526.41;;;26.09
13497;BMP180;6820;49.374;8.452;2023-05-20T09:22:14;100512.63;;;26.23
13497;BMP180;6820;49.374;8.452;2023-05-20T09:26:17;100510.00;;;26.64
13497;BMP180;6820;49.374;8.452;2023-05-20T09:30:19;100518.69;;;26.83
13497;BMP180;6820;49.374;8.452;2023-05-20T09:34:21;100509.13;;;26.88
13497;BMP180;6820;49.374;8.452;2023-05-20T09:38:23;100510.00;;;26.90
13497;BMP180;6820;49.374;8.452;2023-05-20T09:42:30;100500.44;;;26.89
13497;BMP180;6820;49.374;8.452;2023-05-20T09:46:35;100497.81;;;26.99
13497;BMP180;6820;49.374;8.452;2023-05-20T09:50:37;100514.25;;;27.20
13497;BMP180;6820;49.374;8.452;2023-05-20T09:54:39;100510.72;;;27.39
13497;BMP180;6820;49.374;8.452;2023-05-20T09:58:43;100496.75;;;27.53
13497;BMP180;6820;49.374;8.452;2023-05-20T10:02:50;100496.69;;;27.66
13497;BMP180;6820;49.374;8.452;2023-05-20T10:12:05;100474.66;;;28.20
13497;BMP180;6820;49.374;8.452;2023-05-20T10:20:30;100474.13;;;28.78
13497;BMP180;6820;49.374;8.452;2023-05-20T10:24:36;100460.22;;;28.76
13497;BMP180;6820;49.374;8.452;2023-05-20T10:28:39;100449.09;;;28.59
13497;BMP180;6820;49.374;8.452;2023-05-20T10:32:48;100447.28;;;28.67
13497;BMP180;6820;49.374;8.452;2023-05-20T10:40:54;100431.06;;;29.19
13497;BMP180;6820;49.374;8.452;2023-05-20T10:44:57;100435.91;;;29.42
13497;BMP180;6820;49.374;8.452;2023-05-20T10:49:02;100429.69;;;29.54
13497;BMP180;6820;49.374;8.452;2023-05-20T10:53:10;100429.56;;;29.61
13497;BMP180;6820;49.374;8.452;2023-05-20T10:57:27;100417.16;;;29.78
13497;BMP180;6820;49.374;8.452;2023-05-20T11:01:29;100422.75;;;30.09
13497;BMP180;6820;49.374;8.452;2023-05-20T11:05:31;100422.69;;;30.11
13497;BMP180;6820;49.374;8.452;2023-05-20T11:09:33;100420.47;;;29.87
13497;BMP180;6820;49.374;8.452;2023-05-20T11:13:35;100426.13;;;29.59
13497;BMP180;6820;49.374;8.452;2023-05-20T11:17:36;100414.97;;;29.47
13497;BMP180;6820;49.374;8.452;2023-05-20T11:21:42;100417.38;;;29.63
13497;BMP180;6820;49.374;8.452;2023-05-20T11:25:44;100419.97;;;29.65
13497;BMP180;6820;49.374;8.452;2023-05-20T11:29:48;100404.19;;;29.71
13497;BMP180;6820;49.374;8.452;2023-05-20T11:33:51;100412.72;;;29.83
13497;BMP180;6820;49.374;8.452;2023-05-20T11:38:11;100412.63;;;29.89
13497;BMP180;6820;49.374;8.452;2023-05-20T11:42:14;100400.34;;;29.92
13497;BMP180;6820;49.374;8.452;2023-05-20T11:46:19;100396.81;;;29.96
13497;BMP180;6820;49.374;8.452;2023-05-20T11:50:21;100393.44;;;29.90
13497;BMP180;6820;49.374;8.452;2023-05-20T11:54:23;100390.75;;;29.93
13497;BMP180;6820;49.374;8.452;2023-05-20T11:58:28;100386.44;;;29.92
13497;BMP180;6820;49.374;8.452;2023-05-20T12:02:30;100389.47;;;30.19
13497;BMP180;6820;49.374;8.452;2023-05-20T12:06:32;100387.22;;;30.46
13497;BMP180;6820;49.374;8.452;2023-05-20T12:10:34;100385.81;;;30.29
13497;BMP180;6820;49.374;8.452;2023-05-20T12:14:38;100384.00;;;30.31
13497;BMP180;6820;49.374;8.452;2023-05-20T12:18:39;100382.84;;;29.97
13497;BMP180;6820;49.374;8.452;2023-05-20T12:22:44;100383.19;;;29.78
13497;BMP180;6820;49.374;8.452;2023-05-20T12:26:46;100378.97;;;29.70
13497;BMP180;6820;49.374;8.452;2023-05-20T12:30:48;100371.84;;;29.79
13497;BMP180;6820;49.374;8.452;2023-05-20T12:34:49;100373.97;;;30.07
13497;BMP180;6820;49.374;8.452;2023-05-20T12:38:51;100372.56;;;30.36
13497;BMP180;6820;49.374;8.452;2023-05-20T12:42:53;100367.16;;;30.46
13497;BMP180;6820;49.374;8.452;2023-05-20T12:46:54;100363.25;;;30.66
13497;BMP180;6820;49.374;8.452;2023-05-20T12:50:56;100367.72;;;30.63
13497;BMP180;6820;49.374;8.452;2023-05-20T12:54:58;100372.56;;;30.39
13497;BMP180;6820;49.374;8.452;2023-05-20T12:58:59;100370.81;;;30.38
13497;BMP180;6820;49.374;8.452;2023-05-20T13:03:02;100351.50;;;30.87
13497;BMP180;6820;49.374;8.452;2023-05-20T13:07:04;100352.91;;;31.43
13497;BMP180;6820;49.374;8.452;2023-05-20T13:11:06;100348.53;;;31.43
13497;BMP180;6820;49.374;8.452;2023-05-20T13:15:08;100355.25;;;31.16
13497;BMP180;6820;49.374;8.452;2023-05-20T13:19:10;100349.50;;;31.00
13497;BMP180;6820;49.374;8.452;2023-05-20T13:23:12;100357.13;;;30.69
13497;BMP180;6820;49.374;8.452;2023-05-20T13:27:13;100347.84;;;30.53
13497;BMP180;6820;49.374;8.452;2023-05-20T13:31:15;100341.31;;;30.76
13497;BMP180;6820;49.374;8.452;2023-05-20T13:35:17;100341.28;;;31.15
13497;BMP180;6820;49.374;8.452;2023-05-20T13:39:19;100328.97;;;31.58
13497;BMP180;6820;49.374;8.452;2023-05-20T13:43:20;100337.94;;;31.48
13497;BMP180;6820;49.374;8.452;2023-05-20T13:47:22;100328.97;;;31.20
13497;BMP180;6820;49.374;8.452;2023-05-20T13:51:24;100309.41;;;31.36
13497;BMP180;6820;49.374;8.452;2023-05-20T13:55:26;100305.13;;;32.01
13497;BMP180;6820;49.374;8.452;2023-05-20T13:59:28;100306.84;;;32.65
13497;BMP180;6820;49.374;8.452;2023-05-20T14:03:30;100304.69;;;32.50
13497;BMP180;6820;49.374;8.452;2023-05-20T14:07:33;100291.16;;;32.63
13497;BMP180;6820;49.374;8.452;2023-05-20T14:11:35;100294.19;;;32.80
13497;BMP180;6820;49.374;8.452;2023-05-20T14:15:37;100275.41;;;32.92
13497;BMP180;6820;49.374;8.452;2023-05-20T14:19:39;100274.22;;;33.02
13497;BMP180;6820;49.374;8.452;2023-05-20T14:23:40;100275.41;;;32.63
13497;BMP180;6820;49.374;8.452;2023-05-20T14:27:44;100276.28;;;32.34
13497;BMP180;6820;49.374;8.452;2023-05-20T14:31:46;100266.69;;;32.33
13497;BMP180;6820;49.374;8.452;2023-05-20T14:35:48;100262.19;;;32.66
13497;BMP180;6820;49.374;8.452;2023-05-20T14:39:49;100256.69;;;32.75
13497;BMP180;6820;49.374;8.452;2023-05-20T14:43:51;100250.50;;;32.78
13497;BMP180;6820;49.374;8.452;2023-05-20T14:47:53;100246.47;;;32.65
13497;BMP180;6820;49.374;8.452;2023-05-20T14:51:55;100251.97;;;32.57
13497;BMP180;6820;49.374;8.452;2023-05-20T14:55:57;100250.28;;;32.55
13497;BMP180;6820;49.374;8.452;2023-05-20T14:59:58;100250.31;;;32.53
13497;BMP180;6820;49.374;8.452;2023-05-20T15:04:01;100247.25;;;32.40
13497;BMP180;6820;49.374;8.452;2023-05-20T15:08:03;100249.03;;;32.39
13497;BMP180;6820;49.374;8.452;2023-05-20T15:12:05;100238.63;;;32.36
13497;BMP180;6820;49.374;8.452;2023-05-20T15:16:07;100243.66;;;32.12
13497;BMP180;6820;49.374;8.452;2023-05-20T15:20:09;100252.59;;;32.04
13497;BMP180;6820;49.374;8.452;2023-05-20T15:24:11;100257.81;;;32.05
13497;BMP180;6820;49.374;8.452;2023-05-20T15:28:13;100260.03;;;31.89
13497;BMP180;6820;49.374;8.452;2023-05-20T15:32:14;100254.56;;;31.97
13497;BMP180;6820;49.374;8.452;2023-05-20T15:36:16;100256.16;;;32.03
13497;BMP180;6820;49.374;8.452;2023-05-20T15:40:18;100253.69;;;31.97
13497;BMP180;6820;49.374;8.452;2023-05-20T15:44:20;100262.94;;;31.78
13497;BMP180;6820;49.374;8.452;2023-05-20T15:48:21;100268.06;;;31.48
13497;BMP180;6820;49.374;8.452;2023-05-20T15:52:24;100261.84;;;31.16
13497;BMP180;6820;49.374;8.452;2023-05-20T15:56:26;100257.19;;;30.91
13497;BMP180;6820;49.374;8.452;2023-05-20T16:00:28;100274.19;;;30.74
13497;BMP180;6820;49.374;8.452;2023-05-20T16:04:30;100268.50;;;30.53
13497;BMP180;6820;49.374;8.452;2023-05-20T16:08:33;100268.03;;;30.33
13497;BMP180;6820;49.374;8.452;2023-05-20T16:12:37;100263.75;;;30.29
13497;BMP180;6820;49.374;8.452;2023-05-20T16:16:39;100259.31;;;30.34
13497;BMP180;6820;49.374;8.452;2023-05-20T16:20:41;100257.47;;;30.39
13497;BMP180;6820;49.374;8.452;2023-05-20T16:24:43;100264.03;;;30.58
13497;BMP180;6820;49.374;8.452;2023-05-20T16:28:45;100256.78;;;30.71
13497;BMP180;6820;49.374;8.452;2023-05-20T16:32:47;100255.13;;;30.66
13497;BMP180;6820;49.374;8.452;2023-05-20T16:36:49;100266.88;;;30.47
13497;BMP180;6820;49.374;8.452;2023-05-20T16:40:50;100268.22;;;30.24
13497;BMP180;6820;49.374;8.452;2023-05-20T16:44:52;100265.75;;;30.17
13497;BMP180;6820;49.374;8.452;2023-05-20T16:48:54;100274.19;;;30.31
13497;BMP180;6820;49.374;8.452;2023-05-20T16:52:56;100283.97;;;30.21
13497;BMP180;6820;49.374;8.452;2023-05-20T16:56:59;100280.59;;;30.15
13497;BMP180;6820;49.374;8.452;2023-05-20T17:01:01;100276.28;;;30.12
13497;BMP180;6820;49.374;8.452;2023-05-20T17:05:03;100273.53;;;30.20
13497;BMP180;6820;49.374;8.452;2023-05-20T17:09:05;100267.94;;;30.39
13497;BMP180;6820;49.374;8.452;2023-05-20T17:13:09;100267.72;;;30.48
13497;BMP180;6820;49.374;8.452;2023-05-20T17:17:11;100267.00;;;30.41
13497;BMP180;6820;49.374;8.452;2023-05-20T17:21:15;100276.22;;;30.14
13497;BMP180;6820;49.374;8.452;2023-05-20T17:25:20;100276.91;;;29.78
13497;BMP180;6820;49.374;8.452;2023-05-20T17:29:22;100280.81;;;29.52
13497;BMP180;6820;49.374;8.452;2023-05-20T17:33:23;100275.88;;;29.36
13497;BMP180;6820;49.374;8.452;2023-05-20T17:37:25;100274.31;;;29.23
13497;BMP180;6820;49.374;8.452;2023-05-20T17:41:27;100279.66;;;29.17
13497;BMP180;6820;49.374;8.452;2023-05-20T17:45:29;100276.22;;;29.12
13497;BMP180;6820;49.374;8.452;2023-05-20T17:49:31;100273.00;;;28.94
13497;BMP180;6820;49.374;8.452;2023-05-20T17:53:33;100288.84;;;28.81
13497;BMP180;6820;49.374;8.452;2023-05-20T17:57:34;100296.84;;;28.69
13497;BMP180;6820;49.374;8.452;2023-05-20T18:01:36;100303.91;;;28.61
13497;BMP180;6820;49.374;8.452;2023-05-20T18:05:39;100310.09;;;28.53
13497;BMP180;6820;49.374;8.452;2023-05-20T18:09:41;100305.84;;;28.40
13497;BMP180;6820;49.374;8.452;2023-05-20T18:13:43;100314.66;;;28.32
13497;BMP180;6820;49.374;8.452;2023-05-20T18:17:44;100325.06;;;28.32
13497;BMP180;6820;49.374;8.452;2023-05-20T18:21:46;100330.44;;;28.18
13497;BMP180;6820;49.374;8.452;2023-05-20T18:25:48;100330.63;;;27.98
13497;BMP180;6820;49.374;8.452;2023-05-20T18:29:50;100331.59;;;27.86
13497;BMP180;6820;49.374;8.452;2023-05-20T18:33:51;100328.19;;;27.77
13497;BMP180;6820;49.374;8.452;2023-05-20T18:37:53;100326.53;;;27.69
13497;BMP180;6820;49.374;8.452;2023-05-20T18:41:55;100324.09;;;27.51
13497;BMP180;6820;49.374;8.452;2023-05-20T18:45:56;100323.28;;;27.37
13497;BMP180;6820;49.374;8.452;2023-05-20T18:49:58;100331.16;;;27.30
13497;BMP180;6820;49.374;8.452;2023-05-20T18:54:00;100330.28;;;27.28
13497;BMP180;6820;49.374;8.452;2023-05-20T18:58:01;100319.94;;;27.18
13497;BMP180;6820;49.374;8.452;2023-05-20T19:02:03;100339.06;;;27.09
13497;BMP180;6820;49.374;8.452;2023-05-20T19:06:05;100329.59;;;27.01
13497;BMP180;6820;49.374;8.452;2023-05-20T19:10:07;100332.22;;;26.93
13497;BMP180;6820;49.374;8.452;2023-05-20T19:14:09;100333.97;;;26.89
13497;BMP180;6820;49.374;8.452;2023-05-20T19:18:11;100335.78;;;26.78
13497;BMP180;6820;49.374;8.452;2023-05-20T19:22:14;100331.44;;;26.72
13497;BMP180;6820;49.374;8.452;2023-05-20T19:26:16;100332.34;;;26.64
13497;BMP180;6820;49.374;8.452;2023-05-20T19:30:18;100341.88;;;26.61
13497;BMP180;6820;49.374;8.452;2023-05-20T19:34:20;100341.94;;;26.50
13497;BMP180;6820;49.374;8.452;2023-05-20T19:38:22;100349.75;;;26.37
13497;BMP180;6820;49.374;8.452;2023-05-20T19:42:23;100341.13;;;26.26
13497;BMP180;6820;49.374;8.452;2023-05-20T19:46:25;100350.66;;;26.21
13497;BMP180;6820;49.374;8.452;2023-05-20T19:50:27;100361.06;;;26.12
13497;BMP180;6820;49.374;8.452;2023-05-20T19:54:29;100360.16;;;26.06
13497;BMP180;6820;49.374;8.452;2023-05-20T19:58:30;100351.53;;;26.02
13497;BMP180;6820;49.374;8.452;2023-05-20T20:02:32;100353.25;;;25.93
13497;BMP180;6820;49.374;8.452;2023-05-20T20:06:34;100372.31;;;25.86
13497;BMP180;6820;49.374;8.452;2023-05-20T20:10:36;100361.06;;;25.72
13497;BMP180;6820;49.374;8.452;2023-05-20T20:14:38;100364.50;;;25.61
13497;BMP180;6820;49.374;8.452;2023-05-20T20:18:39;100368.81;;;25.61
13497;BMP180;6820;49.374;8.452;2023-05-20T20:22:41;100371.41;;;25.53
13497;BMP180;6820;49.374;8.452;2023-05-20T20:26:43;100371.41;;;25.49
13497;BMP180;6820;49.374;8.452;2023-05-20T20:30:47;100369.63;;;25.39
13497;BMP180;6820;49.374;8.452;2023-05-20T20:34:49;100370.50;;;25.39
13497;BMP180;6820;49.374;8.452;2023-05-20T20:38:51;100365.31;;;25.39
13497;BMP180;6820;49.374;8.452;2023-05-20T20:42:53;100364.44;;;25.35
13497;BMP180;6820;49.374;8.452;2023-05-20T20:46:55;100362.69;;;25.32
13497;BMP180;6820;49.374;8.452;2023-05-20T20:50:58;100365.28;;;25.20
13497;BMP180;6820;49.374;8.452;2023-05-20T20:55:02;100354.03;;;25.18
13497;BMP180;6820;49.374;8.452;2023-05-20T20:59:05;100354.00;;;25.12
13497;BMP180;6820;49.374;8.452;2023-05-20T21:03:07;100349.69;;;25.08
13497;BMP180;6820;49.374;8.452;2023-05-20T21:07:09;100339.31;;;25.06
13497;BMP180;6820;49.374;8.452;2023-05-20T21:11:11;100343.63;;;25.01
13497;BMP180;6820;49.374;8.452;2023-05-20T21:15:12;100339.28;;;25.00
13497;BMP180;6820;49.374;8.452;2023-05-20T21:19:15;100347.06;;;24.92
13497;BMP180;6820;49.374;8.452;2023-05-20T21:23:17;100341.81;;;24.86
13497;BMP180;6820;49.374;8.452;2023-05-20T21:27:19;100333.16;;;24.83
13497;BMP180;6820;49.374;8.452;2023-05-20T21:31:21;100331.38;;;24.76
13497;BMP180;6820;49.374;8.452;2023-05-20T21:35:22;100327.97;;;24.80
13497;BMP180;6820;49.374;8.452;2023-05-20T21:39:24;100329.75;;;24.85
13497;BMP180;6820;49.374;8.452;2023-05-20T21:43:26;100320.13;;;24.70
13497;BMP180;6820;49.374;8.452;2023-05-20T21:47:28;100324.44;;;24.66
13497;BMP180;6820;49.374;8.452;2023-05-20T21:51:29;100322.72;;;24.61
13497;BMP180;6820;49.374;8.452;2023-05-20T21:55:31;100315.75;;;24.57
13497;BMP180;6820;49.374;8.452;2023-05-20T21:59:33;100307.13;;;24.53
13497;BMP180;6820;49.374;8.452;2023-05-20T22:03:35;100311.41;;;24.48
13497;BMP180;6820;49.374;8.452;2023-05-20T22:07:38;100312.25;;;24.42
13497;BMP180;6820;49.374;8.452;2023-05-20T22:11:42;100302.69;;;24.36
13497;BMP180;6820;49.374;8.452;2023-05-20T22:15:45;100309.63;;;24.36
13497;BMP180;6820;49.374;8.452;2023-05-20T22:19:47;100301.81;;;24.33
13497;BMP180;6820;49.374;8.452;2023-05-20T22:23:49;100300.94;;;24.28
13497;BMP180;6820;49.374;8.452;2023-05-20T22:27:50;100288.75;;;24.16
13497;BMP180;6820;49.374;8.452;2023-05-20T22:31:52;100287.00;;;24.11
13497;BMP180;6820;49.374;8.452;2023-05-20T22:35:54;100290.50;;;24.16
13497;BMP180;6820;49.374;8.452;2023-05-20T22:39:58;100284.38;;;24.02
13497;BMP180;6820;49.374;8.452;2023-05-20T22:43:59;100286.94;;;24.01
13497;BMP180;6820;49.374;8.452;2023-05-20T22:48:01;100282.63;;;24.04
13497;BMP180;6820;49.374;8.452;2023-05-20T22:52:04;100271.44;;;24.02
13497;BMP180;6820;49.374;8.452;2023-05-20T22:56:06;100262.78;;;23.97
13497;BMP180;6820;49.374;8.452;2023-05-20T23:00:08;100260.13;;;23.90
13497;BMP180;6820;49.374;8.452;2023-05-20T23:04:10;100267.03;;;23.89
13497;BMP180;6820;49.374;8.452;2023-05-20T23:08:12;100258.41;;;23.93
13497;BMP180;6820;49.374;8.452;2023-05-20T23:12:14;100253.22;;;23.93
13497;BMP180;6820;49.374;8.452;2023-05-20T23:16:16;100250.69;;;23.96
13497;BMP180;6820;49.374;8.452;2023-05-20T23:20:18;100250.69;;;23.96
13497;BMP180;6820;49.374;8.452;2023-05-20T23:24:19;100243.75;;;23.91
13497;BMP180;6820;49.374;8.452;2023-05-20T23:28:21;100242.88;;;23.90